createdAt,value
2023-01-23T00:02:53.037Z,37.40
2023-01-23T00:09:06.024Z,37.60
2023-01-23T00:15:17.966Z,38.00
2023-01-23T00:21:28.192Z,37.80
2023-01-23T00:27:36.636Z,37.40
2023-01-23T00:33:44.863Z,37.20
2023-01-23T00:39:55.920Z,37.40
2023-01-23T00:46:09.054Z,37.60
2023-01-23T00:52:18.438Z,38.00
2023-01-23T00:58:29.046Z,37.60
2023-01-23T01:04:40.044Z,37.10
2023-01-23T01:10:52.377Z,37.40
2023-01-23T01:17:03.643Z,37.50
2023-01-23T01:23:12.852Z,37.60
2023-01-23T01:29:22.932Z,40.60
2023-01-23T01:35:32.562Z,38.90
2023-01-23T01:41:40.373Z,37.50
2023-01-23T01:47:49.976Z,37.70
2023-01-23T01:54:02.345Z,38.00
2023-01-23T02:00:13.862Z,38.10
2023-01-23T02:06:27.448Z,38.40
2023-01-23T02:12:41.033Z,38.50
2023-01-23T02:18:52.249Z,38.40
2023-01-23T02:25:07.028Z,38.40
2023-01-23T02:31:16.975Z,38.40
2023-01-23T02:37:26.899Z,38.30
2023-01-23T02:43:41.334Z,38.20
2023-01-23T02:49:52.145Z,38.20
2023-01-23T02:56:04.038Z,38.10
2023-01-23T03:02:15.501Z,38.00
2023-01-23T03:08:24.530Z,38.10
2023-01-23T03:14:35.433Z,38.00
2023-01-23T03:20:45.191Z,38.10
2023-01-23T03:26:57.912Z,38.00
2023-01-23T03:33:08.795Z,38.10
2023-01-23T03:39:33.421Z,38.00
2023-01-23T03:45:42.849Z,37.90
2023-01-23T03:51:55.170Z,37.90
2023-01-23T03:58:06.170Z,38.00
2023-01-23T04:04:15.964Z,38.00
2023-01-23T04:10:23.323Z,38.20
2023-01-23T04:16:33.447Z,38.00
2023-01-23T04:22:42.752Z,38.30
2023-01-23T04:28:55.200Z,38.20
2023-01-23T04:35:03.470Z,38.00
2023-01-23T04:41:13.745Z,38.00
2023-01-23T04:47:25.334Z,38.10
2023-01-23T04:53:36.018Z,38.30
2023-01-23T04:59:46.409Z,38.40
2023-01-23T05:05:59.155Z,38.20
2023-01-23T05:12:09.348Z,38.40
2023-01-23T05:18:20.450Z,38.20
2023-01-23T05:24:33.879Z,38.50
2023-01-23T05:30:47.028Z,38.40
2023-01-23T05:36:59.386Z,38.20
2023-01-23T05:43:12.119Z,38.30
2023-01-23T05:49:25.057Z,38.20
2023-01-23T05:55:35.008Z,38.50
2023-01-23T06:01:47.540Z,38.40
2023-01-23T06:07:59.131Z,38.50
2023-01-23T06:14:10.604Z,38.60
2023-01-23T06:20:22.875Z,38.40
2023-01-23T06:26:31.418Z,38.50
2023-01-23T06:32:42.414Z,38.70
2023-01-23T06:38:52.679Z,38.90
2023-01-23T06:45:06.669Z,39.30
2023-01-23T06:51:16.722Z,39.40
2023-01-23T06:57:29.351Z,39.60
2023-01-23T07:03:41.468Z,39.40
2023-01-23T07:09:52.469Z,39.50
2023-01-23T07:15:59.911Z,39.40
2023-01-23T07:22:10.740Z,39.10
2023-01-23T07:28:21.571Z,38.50
2023-01-23T07:34:30.604Z,38.70
2023-01-23T07:40:41.830Z,38.90
2023-01-23T07:46:49.347Z,39.00
2023-01-23T07:52:57.001Z,38.90
2023-01-23T07:59:06.988Z,39.10
2023-01-23T08:05:16.663Z,38.70
2023-01-23T08:11:29.089Z,38.20
2023-01-23T08:17:37.532Z,38.60
2023-01-23T08:23:47.578Z,38.70
2023-01-23T08:29:59.204Z,38.90
2023-01-23T08:36:14.204Z,38.60
2023-01-23T08:42:28.551Z,38.20
2023-01-23T08:48:38.307Z,38.40
2023-01-23T08:54:49.193Z,38.70
2023-01-23T09:01:00.075Z,38.80
2023-01-23T09:07:10.660Z,38.60
2023-01-23T09:13:19.461Z,38.20
2023-01-23T09:19:29.487Z,38.30
2023-01-23T09:25:39.350Z,38.60
2023-01-23T09:31:47.456Z,38.80
2023-01-23T09:38:06.921Z,38.70
2023-01-23T09:44:17.686Z,38.30
2023-01-23T09:50:28.937Z,38.20
2023-01-23T09:56:40.384Z,38.50
2023-01-23T10:02:49.187Z,38.60
2023-01-23T10:09:20.823Z,38.60
2023-01-23T10:15:33.130Z,38.30
2023-01-23T10:21:43.898Z,38.20
2023-01-23T10:27:53.124Z,38.50
2023-01-23T10:34:05.422Z,38.70
2023-01-23T10:40:17.049Z,38.70
2023-01-23T10:46:29.774Z,38.40
2023-01-23T10:52:43.433Z,38.20
2023-01-23T10:58:52.301Z,38.40
2023-01-23T11:05:04.825Z,38.70
2023-01-23T11:11:26.314Z,38.90
2023-01-23T11:17:38.404Z,38.60
2023-01-23T11:23:48.292Z,38.30
2023-01-23T11:30:33.778Z,38.50
2023-01-23T11:36:51.455Z,38.60
2023-01-23T11:42:59.592Z,38.80
2023-01-23T11:49:33.451Z,38.50
2023-01-23T11:56:10.840Z,38.30
2023-01-23T12:02:40.837Z,38.40
2023-01-23T12:08:52.876Z,38.60
2023-01-23T12:15:05.358Z,38.60
2023-01-23T12:21:19.370Z,38.40
2023-01-23T12:27:31.651Z,38.40
2023-01-23T12:34:05.446Z,38.40
2023-01-23T12:40:20.512Z,38.40
2023-01-23T12:46:30.882Z,38.30
2023-01-23T12:52:42.798Z,38.30
2023-01-23T12:58:54.346Z,38.20
2023-01-23T13:05:14.276Z,37.90
2023-01-23T13:11:45.511Z,38.10
2023-01-23T13:17:56.915Z,38.40
2023-01-23T13:24:51.643Z,38.50
2023-01-23T13:31:08.086Z,38.30
2023-01-23T13:38:02.972Z,38.10
2023-01-23T13:44:27.069Z,38.30
2023-01-23T13:50:38.085Z,39.50
2023-01-23T13:56:48.281Z,39.70
2023-01-23T14:03:16.035Z,38.90
2023-01-23T14:09:30.370Z,38.60
2023-01-23T14:15:56.138Z,38.60
2023-01-23T14:22:08.739Z,38.90
2023-01-23T14:28:23.507Z,39.80
2023-01-23T14:34:31.746Z,40.20
2023-01-23T14:40:49.831Z,39.20
2023-01-23T14:53:10.121Z,38.80
2023-01-23T14:59:26.253Z,39.20
2023-01-23T15:05:34.118Z,39.40
2023-01-23T15:11:44.871Z,39.40
2023-01-23T15:17:54.728Z,39.00
2023-01-23T15:30:51.780Z,39.10
2023-01-23T15:37:07.233Z,40.50
2023-01-23T15:43:20.891Z,40.50
2023-01-23T15:49:28.445Z,39.00
2023-01-23T15:55:37.377Z,39.10
2023-01-23T16:01:50.720Z,39.00
2023-01-23T16:08:03.495Z,38.70
2023-01-23T16:14:14.859Z,38.80
2023-01-23T16:20:24.807Z,39.00
2023-01-23T16:26:39.234Z,39.00
2023-01-23T16:32:52.061Z,38.40
2023-01-23T16:39:05.147Z,38.10
2023-01-23T16:45:22.172Z,38.40
2023-01-23T16:51:30.169Z,38.50
2023-01-23T16:57:39.955Z,38.60
2023-01-23T17:03:51.596Z,38.90
2023-01-23T17:10:04.547Z,38.80
2023-01-23T17:16:27.469Z,39.30
2023-01-23T17:22:30.487Z,40.20
2023-01-23T17:28:42.598Z,39.80
2023-01-23T17:34:55.435Z,38.40
2023-01-23T17:41:08.293Z,39.50
2023-01-23T17:47:18.957Z,40.20
2023-01-23T17:53:31.204Z,40.30
2023-01-23T17:59:42.817Z,40.20
2023-01-23T18:05:56.297Z,40.00
2023-01-23T18:12:10.204Z,40.50
2023-01-23T18:18:24.293Z,40.30
2023-01-23T18:24:41.009Z,39.10
2023-01-23T18:30:58.430Z,39.00
2023-01-23T18:37:15.776Z,39.30
2023-01-23T18:43:29.851Z,39.80
2023-01-23T18:49:43.452Z,39.80
2023-01-23T18:55:55.808Z,39.80
2023-01-23T19:02:11.284Z,40.40
2023-01-23T19:08:29.815Z,40.10
2023-01-23T19:21:26.368Z,39.30
2023-01-23T19:27:41.464Z,39.30
2023-01-23T19:33:53.790Z,40.10
2023-01-23T19:40:04.995Z,39.60
2023-01-23T19:46:18.686Z,38.80
2023-01-23T19:52:29.500Z,38.90
2023-01-23T19:58:41.406Z,38.90
2023-01-23T20:04:53.583Z,39.30
2023-01-23T20:11:03.210Z,39.40
2023-01-23T20:17:13.671Z,38.60
2023-01-23T20:23:24.731Z,38.40
2023-01-23T20:29:34.059Z,38.50
2023-01-23T20:35:45.085Z,38.50
2023-01-23T20:41:54.662Z,39.20
2023-01-23T20:48:07.431Z,38.60
2023-01-23T20:54:22.913Z,37.80
2023-01-23T21:00:31.022Z,37.80
2023-01-23T21:06:41.383Z,38.90
2023-01-23T21:12:52.614Z,40.60
2023-01-23T21:19:02.571Z,38.30
2023-01-23T21:25:14.813Z,38.60
2023-01-23T21:31:23.459Z,39.10
2023-01-23T21:37:35.630Z,39.30
2023-01-23T21:43:47.759Z,39.40
2023-01-23T21:50:03.450Z,39.80
2023-01-23T21:56:14.132Z,39.70
2023-01-23T22:02:29.275Z,38.90
2023-01-23T22:08:39.461Z,39.20
2023-01-23T22:14:50.987Z,39.20
2023-01-23T22:21:01.023Z,39.20
2023-01-23T22:27:12.809Z,39.70
2023-01-23T22:33:25.701Z,39.40
2023-01-23T22:39:36.743Z,38.80
2023-01-23T22:45:45.177Z,38.80
2023-01-23T22:51:58.942Z,38.70
2023-01-23T22:58:13.172Z,38.90
2023-01-23T23:04:25.034Z,39.00
2023-01-23T23:10:34.666Z,40.00
2023-01-23T23:16:44.972Z,40.10
2023-01-23T23:22:55.285Z,40.20
2023-01-23T23:29:04.806Z,38.90
2023-01-23T23:35:17.527Z,39.80
2023-01-23T23:41:30.047Z,40.30
2023-01-23T23:47:41.067Z,40.30
2023-01-23T23:53:51.048Z,40.40
